Time;durP1;ratioP1;P1;durP2;ratioP2;P2;SDS_P1;SDS_P2;PMS_P1;PMS_P2;Temp;Humidity;BMP_temperature;BMP_pressure;BME280_temperature;BME280_humidity;BME280_pressure;Samples;Min_cycle;Max_cycle;Signal;HPM_P1;HPM_P2
2022/12/06 00:01:40;;;;;;;38.88;23.65;;;;;;;1.61;100.00;101220.91;7395323;19;20046;-75
2022/12/06 00:04:10;;;;;;;35.72;23.15;;;;;;;1.61;100.00;101218.31;7395184;19;20086;-75
2022/12/06 00:06:40;;;;;;;37.95;22.98;;;;;;;1.59;100.00;101220.88;7396445;19;20040;-75
2022/12/06 00:09:18;;;;;;;35.67;22.83;;;;;;;1.61;100.00;101215.72;7395631;19;20026;-75
2022/12/06 00:11:47;;;;;;;35.13;23.20;;;;;;;1.60;100.00;101211.38;7396257;19;20031;-75
2022/12/06 00:14:16;;;;;;;36.65;23.40;;;;;;;1.60;100.00;101201.03;7395269;19;20035;-73
2022/12/06 00:16:45;;;;;;;35.53;22.98;;;;;;;1.61;100.00;101207.97;7394148;19;20011;-73
2022/12/06 00:19:16;;;;;;;36.55;23.40;;;;;;;1.59;100.00;101199.28;7394756;19;20039;-73
2022/12/06 00:21:46;;;;;;;33.55;23.00;;;;;;;1.59;100.00;101200.19;7394327;19;20033;-73
2022/12/06 00:24:18;;;;;;;33.67;21.92;;;;;;;1.59;100.00;101199.28;7394501;19;20123;-73
2022/12/06 00:26:49;;;;;;;36.08;22.67;;;;;;;1.56;100.00;101197.50;7394584;19;20019;-75
2022/12/06 00:29:19;;;;;;;35.25;22.50;;;;;;;1.61;100.00;101197.63;7396317;19;20014;-75
2022/12/06 00:31:48;;;;;;;33.78;21.27;;;;;;;1.59;100.00;101197.59;7395543;19;20351;-75
2022/12/06 00:34:17;;;;;;;34.17;22.23;;;;;;;1.59;100.00;101194.13;7394107;19;20018;-75
2022/12/06 00:36:46;;;;;;;32.53;21.95;;;;;;;1.57;100.00;101190.66;7395828;19;20027;-74
2022/12/06 00:39:19;;;;;;;34.45;23.05;;;;;;;1.61;100.00;101200.22;7400588;19;20095;-74
2022/12/06 00:41:47;;;;;;;35.47;22.42;;;;;;;1.60;100.00;101195.88;7400419;19;20022;-74
2022/12/06 00:44:16;;;;;;;38.47;21.90;;;;;;;1.59;100.00;101192.44;7399981;19;20022;-75
2022/12/06 00:46:44;;;;;;;33.05;21.63;;;;;;;1.60;100.00;101195.88;7403071;19;20026;-75
2022/12/06 00:49:13;;;;;;;35.15;21.85;;;;;;;1.61;100.00;101198.47;7402442;19;20011;-75
2022/12/06 00:51:41;;;;;;;38.80;21.83;;;;;;;1.61;100.00;101197.63;7400075;19;20035;-74
2022/12/06 00:54:11;;;;;;;33.53;21.23;;;;;;;1.57;100.00;101193.22;7400184;19;20078;-74
2022/12/06 00:56:43;;;;;;;35.50;21.33;;;;;;;1.58;100.00;101193.25;7402411;19;20019;-74
2022/12/06 00:59:12;;;;;;;34.15;20.67;;;;;;;1.61;100.00;101198.47;7401999;19;20070;-74
2022/12/06 01:01:40;;;;;;;34.92;21.15;;;;;;;1.62;100.00;101194.19;7402171;19;20014;-74
2022/12/06 01:04:09;;;;;;;36.80;22.65;;;;;;;1.61;100.00;101192.44;7400350;19;20039;-74
2022/12/06 01:06:39;;;;;;;37.45;22.65;;;;;;;1.59;100.00;101184.66;7402319;19;20011;-74
2022/12/06 01:09:09;;;;;;;35.78;21.63;;;;;;;1.63;100.00;101191.66;7402003;19;20011;-74
2022/12/06 01:11:38;;;;;;;34.83;21.40;;;;;;;1.64;100.00;101189.91;7402469;19;20023;-74
2022/12/06 01:14:09;;;;;;;35.70;21.48;;;;;;;1.65;100.00;101185.63;7399333;19;20082;-75
2022/12/06 01:16:38;;;;;;;33.72;20.67;;;;;;;1.63;100.00;101183.88;7399370;19;20027;-75
2022/12/06 01:19:07;;;;;;;32.67;21.70;;;;;;;1.66;100.00;101192.56;7399611;19;20436;-74
2022/12/06 01:21:36;;;;;;;33.40;20.50;;;;;;;1.65;100.00;101196.84;7402215;19;20022;-74
2022/12/06 01:24:05;;;;;;;32.03;20.10;;;;;;;1.61;100.00;101193.31;7398859;19;20022;-74
2022/12/06 01:26:35;;;;;;;32.25;20.52;;;;;;;1.66;100.00;101192.56;7401474;19;20109;-74
2022/12/06 01:29:04;;;;;;;32.13;20.48;;;;;;;1.65;100.00;101188.22;7400120;19;20056;-75
2022/12/06 01:31:35;;;;;;;32.80;20.38;;;;;;;1.65;100.00;101183.91;7401757;19;20022;-74
2022/12/06 01:34:04;;;;;;;30.67;20.48;;;;;;;1.64;100.00;101187.34;7399985;19;20014;-74
2022/12/06 01:36:32;;;;;;;31.90;20.98;;;;;;;1.61;100.00;101182.09;7401468;19;20011;-74
2022/12/06 01:39:05;;;;;;;34.60;20.17;;;;;;;1.61;100.00;101187.28;7398812;19;20027;-76
2022/12/06 01:41:34;;;;;;;30.65;20.65;;;;;;;1.63;100.00;101181.31;7402444;19;20015;-76
2022/12/06 01:44:02;;;;;;;34.40;21.75;;;;;;;1.63;100.00;101180.41;7399382;19;20384;-76
2022/12/06 01:46:36;;;;;;;33.17;20.60;;;;;;;1.61;100.00;101188.13;7402906;19;20015;-77
2022/12/06 01:49:19;;;;;;;38.67;22.42;;;;;;;1.58;100.00;101176.84;7402792;19;20067;-77
2022/12/06 01:51:51;;;;;;;33.90;21.70;;;;;;;1.58;100.00;101175.16;7400567;19;20485;-75
2022/12/06 01:54:22;;;;;;;34.20;21.42;;;;;;;1.59;100.00;101173.44;7400342;19;20018;-77
2022/12/06 01:56:54;;;;;;;35.65;20.88;;;;;;;1.63;100.00;101172.66;7404063;19;20014;-77
2022/12/06 01:59:24;;;;;;;32.78;20.58;;;;;;;1.60;100.00;101177.78;7403822;19;20007;-78
2022/12/06 02:01:56;;;;;;;30.98;20.40;;;;;;;1.50;100.00;101158.56;7401323;19;20489;-77
2022/12/06 02:04:25;;;;;;;36.42;21.85;;;;;;;1.60;100.00;101170.00;7400656;19;20011;-76
2022/12/06 02:06:57;;;;;;;35.63;20.88;;;;;;;1.60;100.00;101177.78;7420567;19;20014;-76
2022/12/06 02:09:28;;;;;;;37.60;22.45;;;;;;;1.58;100.00;101176.84;7419588;19;20021;-77
2022/12/06 02:11:56;;;;;;;35.38;23.10;;;;;;;1.60;100.00;101182.94;7415996;19;20007;-76
2022/12/06 02:14:29;;;;;;;35.17;21.75;;;;;;;1.58;100.00;101180.31;7395488;19;20031;-71
2022/12/06 02:17:17;;;;;;;34.17;22.17;;;;;;;1.59;100.00;101173.44;7399182;19;20022;-71
2022/12/06 02:20:02;;;;;;;34.20;21.45;;;;;;;1.59;100.00;101173.44;7398418;19;20485;-71
2022/12/06 02:22:45;;;;;;;36.03;21.23;;;;;;;1.59;100.00;101170.84;7399019;19;20010;-71
2022/12/06 02:25:46;;;;;;;34.20;22.00;;;;;;;1.57;100.00;101165.63;7399001;19;20026;-71
2022/12/06 02:28:41;;;;;;;32.30;21.75;;;;;;;1.56;100.00;101156.13;7398853;19;20084;-71
2022/12/06 02:31:16;;;;;;;35.67;22.10;;;;;;;1.55;100.00;101156.09;7398104;19;20018;-71
2022/12/06 02:33:50;;;;;;;34.10;22.05;;;;;;;1.55;100.00;101156.97;7397276;19;20082;-71
2022/12/06 02:36:26;;;;;;;32.83;21.27;;;;;;;1.56;100.00;101156.13;7396419;19;20018;-71
2022/12/06 02:39:01;;;;;;;31.27;21.80;;;;;;;1.54;100.00;101146.59;7398547;19;20407;-71
2022/12/06 02:41:36;;;;;;;31.20;20.30;;;;;;;1.53;100.00;101139.66;7398418;19;20027;-71
2022/12/06 02:44:09;;;;;;;31.60;19.35;;;;;;;1.54;100.00;101139.72;7396683;19;20022;-70
2022/12/06 02:46:42;;;;;;;35.47;21.27;;;;;;;1.54;100.00;101134.56;7397983;19;20031;-70
2022/12/06 02:49:13;;;;;;;29.63;20.08;;;;;;;1.55;100.00;101135.41;7398200;19;20018;-71
2022/12/06 02:51:42;;;;;;;31.17;21.00;;;;;;;1.51;100.00;101118.09;7398169;19;20031;-71
2022/12/06 02:54:11;;;;;;;32.35;20.40;;;;;;;1.55;100.00;101130.25;7396027;19;20019;-71
2022/12/06 02:56:40;;;;;;;30.88;20.88;;;;;;;1.53;100.00;101127.63;7397407;19;20082;-71
2022/12/06 02:59:08;;;;;;;29.02;19.92;;;;;;;1.52;100.00;101118.13;7397583;19;20018;-71
2022/12/06 03:01:45;;;;;;;26.52;18.02;;;;;;;1.52;100.00;101119.84;7395437;19;20022;-71
2022/12/06 03:04:45;;;;;;;29.23;19.02;;;;;;;1.50;100.00;101116.34;7396051;19;20035;-69
2022/12/06 03:07:34;;;;;;;25.30;17.48;;;;;;;1.50;100.00;101117.19;7396752;19;20078;-70
2022/12/06 03:10:20;;;;;;;26.95;17.83;;;;;;;1.49;100.00;101107.69;7396335;19;20014;-69
2022/12/06 03:12:56;;;;;;;26.85;17.60;;;;;;;1.49;100.00;101102.53;7394289;19;20014;-70
2022/12/06 03:15:35;;;;;;;24.15;16.85;;;;;;;1.49;100.00;101093.91;7396211;19;20026;-70
2022/12/06 03:18:13;;;;;;;28.17;18.77;;;;;;;1.48;100.00;101097.31;7396973;19;20104;-70
2022/12/06 03:20:46;;;;;;;25.55;16.98;;;;;;;1.49;100.00;101093.91;7399218;19;20022;-73
2022/12/06 03:23:19;;;;;;;25.27;16.35;;;;;;;1.48;100.00;101089.56;7395740;19;20023;-69
2022/12/06 03:25:50;;;;;;;24.63;16.73;;;;;;;1.47;100.00;101086.13;7396972;19;20035;-70
2022/12/06 03:28:20;;;;;;;25.17;16.35;;;;;;;1.46;100.00;101080.06;7396876;19;20532;-70
2022/12/06 03:30:58;;;;;;;25.23;15.75;;;;;;;1.45;100.00;101080.03;7396257;19;20082;-70
2022/12/06 03:33:31;;;;;;;21.90;15.80;;;;;;;1.44;100.00;101076.59;7395959;19;20031;-70
2022/12/06 03:36:00;;;;;;;25.73;16.52;;;;;;;1.44;100.00;101081.75;7395084;19;20014;-70
2022/12/06 03:38:34;;;;;;;24.90;15.80;;;;;;;1.44;100.00;101076.59;7395852;19;20023;-70
2022/12/06 03:41:06;;;;;;;21.40;15.27;;;;;;;1.42;100.00;101080.84;7395964;19;20031;-70
2022/12/06 03:43:35;;;;;;;21.80;15.18;;;;;;;1.44;100.00;101080.88;7395487;19;20026;-70
2022/12/06 03:46:10;;;;;;;22.58;15.43;;;;;;;1.43;100.00;101077.41;7395984;19;20035;-70
2022/12/06 03:48:43;;;;;;;;;;;;;;;1.43;100.00;101073.97;7395305;19;20023;-70
2022/12/06 03:51:17;;;;;;;22.50;15.40;;;;;;;1.41;100.00;101068.75;7395540;19;19935;-70
2022/12/06 03:53:49;;;;;;;24.27;16.27;;;;;;;1.40;100.00;101064.44;7395116;19;20112;-70
2022/12/06 03:56:18;;;;;;;22.45;15.68;;;;;;;1.40;100.00;101063.56;7393666;19;20090;-70
2022/12/06 03:58:47;;;;;;;21.02;15.60;;;;;;;1.38;100.00;101055.78;7394988;19;20506;-69
2022/12/06 04:01:15;;;;;;;26.38;16.80;;;;;;;1.41;100.00;101066.16;7393671;19;20018;-70
2022/12/06 04:03:46;;;;;;;21.17;14.85;;;;;;;1.40;100.00;101064.44;7394009;19;20501;-69
2022/12/06 04:06:21;;;;;;;20.10;14.80;;;;;;;1.42;100.00;101061.88;7395795;19;20019;-69
2022/12/06 04:08:50;;;;;;;22.95;15.75;;;;;;;1.38;100.00;101054.88;7394816;19;20541;-69
2022/12/06 04:11:18;;;;;;;25.10;16.38;;;;;;;1.41;100.00;101054.97;7398412;19;20067;-70
2022/12/06 04:13:47;;;;;;;23.13;15.70;;;;;;;1.42;100.00;101054.13;7407989;19;20089;-70
2022/12/06 04:19:01;;;;;;;25.58;16.60;;;;;;;1.40;100.00;101064.44;7405678;19;20014;-70
2022/12/06 04:24:10;;;;;;;23.98;16.38;;;;;;;1.39;100.00;101062.69;7407950;19;20509;-69
2022/12/06 04:26:39;;;;;;;22.83;16.52;;;;;;;1.39;100.00;101060.09;7408356;19;20018;-69
2022/12/06 04:39:53;;;;;;;28.05;17.50;;;;;;;1.40;100.00;101046.34;7408664;19;20007;-70
2022/12/06 04:45:03;;;;;;;27.30;17.92;;;;;;;1.39;100.00;101042.00;7408922;19;20411;-70
2022/12/06 04:47:31;;;;;;;28.50;18.55;;;;;;;1.40;100.00;101050.63;7405885;19;20018;-70
2022/12/06 04:50:02;;;;;;;27.05;17.95;;;;;;;1.39;100.00;101042.00;7408088;19;20485;-70
2022/12/06 04:52:31;;;;;;;30.30;18.20;;;;;;;1.39;100.00;101046.28;7407485;19;20018;-70
2022/12/06 04:54:59;;;;;;;29.70;19.05;;;;;;;1.41;100.00;101042.03;7406937;19;20082;-70
2022/12/06 04:57:28;;;;;;;27.55;19.38;;;;;;;1.39;100.00;101029.09;7407359;19;20074;-71
2022/12/06 04:59:56;;;;;;;31.13;19.70;;;;;;;1.39;100.00;101034.25;7407694;19;20039;-70
2022/12/06 05:02:25;;;;;;;28.95;19.50;;;;;;;1.38;100.00;101032.50;7408014;19;20026;-69
2022/12/06 05:04:53;;;;;;;29.30;19.65;;;;;;;1.38;99.93;101036.78;7405234;19;20384;-70
2022/12/06 05:07:24;;;;;;;31.85;20.73;;;;;;;1.36;99.82;101034.16;7407840;19;20022;-69
2022/12/06 05:09:53;;;;;;;30.25;19.48;;;;;;;1.36;99.97;101035.91;7407229;19;20090;-71
2022/12/06 05:12:21;;;;;;;32.67;20.63;;;;;;;1.36;100.00;101044.50;7405558;19;20035;-69
2022/12/06 05:14:50;;;;;;;31.80;20.00;;;;;;;1.35;99.61;101045.34;7405023;19;20015;-70
2022/12/06 05:17:18;;;;;;;29.73;20.55;;;;;;;1.36;100.00;101041.06;7407565;19;20018;-70
2022/12/06 05:19:46;;;;;;;28.55;18.98;;;;;;;1.35;99.99;101039.31;7406712;19;20551;-71
2022/12/06 05:22:15;;;;;;;30.98;19.92;;;;;;;1.35;100.00;101035.00;7406187;19;20018;-69
2022/12/06 05:24:46;;;;;;;31.75;20.67;;;;;;;1.36;100.00;101036.75;7396365;19;20026;-69
2022/12/06 05:27:15;;;;;;;33.20;20.65;;;;;;;1.37;100.00;101029.88;7397359;19;20014;-70
2022/12/06 05:29:43;;;;;;;31.27;20.00;;;;;;;1.38;100.00;101029.91;7399857;19;20037;-70
2022/12/06 05:32:12;;;;;;;31.33;21.02;;;;;;;1.38;100.00;101014.41;7396983;19;20491;-69
2022/12/06 05:34:40;;;;;;;31.20;20.58;;;;;;;1.38;100.00;101023.84;7397335;19;20019;-70
2022/12/06 05:37:09;;;;;;;35.25;20.65;;;;;;;1.39;100.00;101025.59;7399894;19;20019;-69
2022/12/06 05:39:37;;;;;;;32.88;20.50;;;;;;;1.40;100.00;101029.94;7397196;19;20014;-69
2022/12/06 05:42:08;;;;;;;32.15;19.98;;;;;;;1.39;100.00;101030.78;7399489;19;20018;-69
2022/12/06 05:44:37;;;;;;;30.35;20.17;;;;;;;1.40;100.00;101033.41;7396938;19;20023;-69
2022/12/06 05:47:05;;;;;;;30.27;20.55;;;;;;;1.39;100.00;101036.84;7399105;19;20502;-68
2022/12/06 05:49:34;;;;;;;33.65;20.95;;;;;;;1.41;100.00;101037.72;7399351;19;20018;-71
2022/12/06 05:52:03;;;;;;;31.27;19.95;;;;;;;1.41;100.00;101037.72;7398982;19;20019;-70
2022/12/06 05:54:31;;;;;;;31.27;19.35;;;;;;;1.43;100.00;101035.19;7397165;19;20031;-71
2022/12/06 05:57:00;;;;;;;29.27;18.48;;;;;;;1.43;100.00;101033.47;7396884;19;20022;-70
2022/12/06 05:59:31;;;;;;;28.50;18.85;;;;;;;1.44;100.00;101035.22;7396827;19;20014;-71
2022/12/06 06:01:59;;;;;;;28.00;19.00;;;;;;;1.44;100.00;101030.03;7398252;19;20087;-70
2022/12/06 06:04:28;;;;;;;27.35;18.10;;;;;;;1.45;100.00;101034.38;7396542;19;20090;-70
2022/12/06 06:06:56;;;;;;;33.88;23.58;;;;;;;1.46;100.00;101027.47;7398116;19;20070;-70
2022/12/06 06:09:26;;;;;;;34.38;26.08;;;;;;;1.45;100.00;101020.56;7398399;19;20031;-69
2022/12/06 06:11:54;;;;;;;36.28;27.27;;;;;;;1.48;100.00;101030.09;7398903;19;20119;-70
2022/12/06 06:14:23;;;;;;;32.55;22.17;;;;;;;1.46;100.00;101024.91;7396405;19;20512;-70
2022/12/06 06:16:54;;;;;;;31.08;20.42;;;;;;;1.46;100.00;101022.31;7397737;19;20098;-70
2022/12/06 06:19:24;;;;;;;34.45;20.42;;;;;;;1.46;100.00;101022.31;7399919;19;20026;-71
2022/12/06 06:21:52;;;;;;;36.95;21.35;;;;;;;1.45;100.00;101017.97;7397734;19;20017;-70
2022/12/06 06:24:22;;;;;;;34.45;21.30;;;;;;;1.44;100.00;101019.69;7396055;19;20014;-70
2022/12/06 06:26:51;;;;;;;30.65;20.73;;;;;;;1.44;100.00;101021.41;7397148;19;20015;-70
2022/12/06 06:29:19;;;;;;;28.88;19.35;;;;;;;1.44;100.00;101019.69;7397968;19;20041;-70
2022/12/06 06:31:48;;;;;;;27.20;17.52;;;;;;;1.43;100.00;101027.44;7397875;19;20380;-70
2022/12/06 06:34:19;;;;;;;28.77;18.83;;;;;;;1.44;100.00;101029.16;7395703;19;20015;-70
2022/12/06 06:36:47;;;;;;;27.95;17.90;;;;;;;1.43;100.00;101027.44;7396570;19;20077;-70
2022/12/06 06:39:17;;;;;;;25.25;18.00;;;;;;;1.43;100.00;101017.94;7395171;19;20078;-71
2022/12/06 06:41:51;;;;;;;26.30;18.33;;;;;;;1.41;100.00;101019.63;7399569;19;20037;-69
2022/12/06 06:44:20;;;;;;;30.30;19.05;;;;;;;1.41;100.00;101019.63;7395535;19;20022;-68
2022/12/06 06:46:48;;;;;;;25.55;17.38;;;;;;;1.41;100.00;101024.78;7397084;19;20412;-69
2022/12/06 06:49:19;;;;;;;28.13;17.38;;;;;;;1.40;100.00;101017.91;7397629;19;20026;-69
2022/12/06 06:51:48;;;;;;;26.23;17.95;;;;;;;1.41;100.00;101019.63;7397619;19;20015;-69
2022/12/06 06:54:17;;;;;;;26.25;17.48;;;;;;;1.41;100.00;101029.09;7395393;19;20010;-69
2022/12/06 06:56:45;;;;;;;27.15;17.75;;;;;;;1.41;100.00;101026.53;7395583;19;20014;-69
2022/12/06 06:59:14;;;;;;;26.35;17.90;;;;;;;1.41;100.00;101026.53;7397124;19;20018;-69
2022/12/06 07:01:42;;;;;;;25.27;16.90;;;;;;;1.41;100.00;101024.78;7394893;19;20501;-69
2022/12/06 07:04:11;;;;;;;24.88;17.83;;;;;;;1.42;100.00;101031.72;7394903;19;20035;-68
2022/12/06 07:06:42;;;;;;;26.30;17.98;;;;;;;1.42;100.00;101034.31;7396892;19;20063;-69
2022/12/06 07:09:10;;;;;;;27.75;17.92;;;;;;;1.43;100.00;101035.19;7396328;19;20462;-69
2022/12/06 07:11:39;;;;;;;26.85;17.63;;;;;;;1.44;100.00;101029.16;7394214;19;20488;-69
2022/12/06 07:14:07;;;;;;;27.25;17.73;;;;;;;1.44;100.00;101023.97;7394763;19;20371;-69
2022/12/06 07:16:36;;;;;;;23.85;16.40;;;;;;;1.45;100.00;101033.50;7395441;19;20027;-68
2022/12/06 07:19:04;;;;;;;25.30;16.83;;;;;;;1.45;100.00;101031.78;7396339;19;20018;-69
2022/12/06 07:21:33;;;;;;;26.35;16.67;;;;;;;1.46;100.00;101028.34;7396150;19;20082;-69
2022/12/06 07:24:04;;;;;;;24.23;15.90;;;;;;;1.46;100.00;101025.75;7394469;19;20422;-69
2022/12/06 07:26:33;;;;;;;26.38;16.83;;;;;;;1.48;100.00;101020.63;7395694;19;20026;-69
2022/12/06 07:29:02;;;;;;;22.15;16.20;;;;;;;1.50;100.00;101026.69;7393709;19;20037;-69
2022/12/06 07:31:32;;;;;;;24.85;17.05;;;;;;;1.52;100.00;101026.75;7395968;19;20020;-70
2022/12/06 07:34:02;;;;;;;25.90;17.10;;;;;;;1.52;100.00;101027.59;7393799;19;20019;-70
2022/12/06 07:36:32;;;;;;;28.00;17.25;;;;;;;1.54;100.00;101032.81;7394176;19;20423;-70
2022/12/06 07:39:04;;;;;;;26.15;17.40;;;;;;;1.55;100.00;101029.38;7395361;19;20041;-70
2022/12/06 07:46:57;;;;;;;26.60;17.67;;;;;;;1.56;100.00;101034.56;7393767;19;20034;-70
2022/12/06 07:49:25;;;;;;;25.17;16.92;;;;;;;1.59;100.00;101033.75;7395687;19;20032;-70
2022/12/06 07:51:55;;;;;;;25.85;17.20;;;;;;;1.58;100.00;101029.44;7393631;19;20015;-70
2022/12/06 07:54:27;;;;;;;29.38;18.02;;;;;;;1.57;100.00;101027.72;7393983;19;20078;-70
2022/12/06 07:56:56;;;;;;;26.00;16.60;;;;;;;1.59;100.00;101036.34;7394987;19;20022;-69
2022/12/06 07:59:25;;;;;;;27.83;17.75;;;;;;;1.58;100.00;101030.31;7394984;19;20011;-69
2022/12/06 08:01:55;;;;;;;25.40;16.52;;;;;;;1.58;100.00;101029.44;7395441;19;20025;-69
2022/12/06 08:04:23;;;;;;;27.25;17.30;;;;;;;1.59;100.00;101028.59;7393949;19;20019;-69
2022/12/06 08:06:53;;;;;;;28.65;18.25;;;;;;;1.62;100.00;101036.44;7394792;19;20014;-69
2022/12/06 08:09:21;;;;;;;27.50;17.27;;;;;;;1.63;100.00;101035.56;7395160;19;20074;-70
2022/12/06 08:11:52;;;;;;;27.10;17.20;;;;;;;1.63;100.00;101035.56;7394822;19;20018;-70
2022/12/06 08:14:22;;;;;;;25.95;16.55;;;;;;;1.65;100.00;101038.19;7393132;19;20031;-70
2022/12/06 08:16:51;;;;;;;25.58;16.55;;;;;;;1.65;100.00;101033.03;7393336;19;20011;-70
2022/12/06 08:19:19;;;;;;;28.85;18.52;;;;;;;1.65;100.00;101035.63;7394413;19;20495;-70
2022/12/06 08:21:47;;;;;;;29.73;19.15;;;;;;;1.65;100.00;101039.06;7394606;19;20019;-70
2022/12/06 08:24:16;;;;;;;26.67;17.55;;;;;;;1.67;100.00;101037.38;7393028;19;20032;-70
2022/12/06 08:26:45;;;;;;;25.60;16.90;;;;;;;1.68;100.00;101031.38;7394018;19;20493;-70
2022/12/06 08:29:16;;;;;;;28.98;17.33;;;;;;;1.70;100.00;101032.25;7394545;19;20019;-69
2022/12/06 08:31:45;;;;;;;26.60;17.48;;;;;;;1.71;100.00;101027.97;7394193;19;20392;-69
2022/12/06 08:34:14;;;;;;;23.75;16.50;;;;;;;1.72;100.00;101028.00;7392343;19;20030;-69
2022/12/06 08:36:43;;;;;;;24.33;15.98;;;;;;;1.74;100.00;101025.44;7393783;19;20486;-69
2022/12/06 08:39:13;;;;;;;25.95;15.57;;;;;;;1.74;100.00;101031.47;7391620;19;20415;-68
2022/12/06 08:41:57;;;;;;;24.00;16.40;;;;;;;1.77;100.00;101034.13;7394490;19;20026;-69
2022/12/06 08:44:30;;;;;;;24.33;16.57;;;;;;;1.77;100.00;101036.72;7392829;19;20018;-69
2022/12/06 08:47:00;;;;;;;24.13;17.30;;;;;;;1.77;100.00;101039.31;7392707;19;20078;-69
2022/12/06 08:49:30;;;;;;;25.77;17.67;;;;;;;1.78;100.00;101037.56;7393732;19;20496;-68
2022/12/06 08:52:00;;;;;;;22.00;15.38;;;;;;;1.79;100.00;101036.75;7391773;19;20082;-69
2022/12/06 08:54:29;;;;;;;22.60;15.98;;;;;;;1.80;100.00;101043.66;7392136;19;20040;-69
2022/12/06 08:56:58;;;;;;;23.67;15.40;;;;;;;1.80;100.00;101033.31;7392345;19;20014;-72
2022/12/06 08:59:29;;;;;;;21.20;14.27;;;;;;;1.82;100.00;101035.94;7398441;19;20089;-72
2022/12/06 09:01:58;;;;;;;23.38;15.60;;;;;;;1.84;100.00;101039.44;7400574;19;20018;-72
2022/12/06 09:04:27;;;;;;;22.75;15.88;;;;;;;1.84;100.00;101040.28;7398999;19;20030;-70
2022/12/06 09:07:02;;;;;;;19.48;14.85;;;;;;;1.86;100.00;101035.13;7401312;19;20041;-68
2022/12/06 09:09:30;;;;;;;23.23;15.43;;;;;;;1.86;100.00;101036.03;7401956;19;20078;-68
2022/12/06 09:11:59;;;;;;;22.25;15.02;;;;;;;1.88;100.00;101038.63;7401354;19;20489;-71
2022/12/06 09:14:30;;;;;;;23.33;16.23;;;;;;;1.88;100.00;101031.72;7398956;19;20014;-71
2022/12/06 09:16:58;;;;;;;23.45;16.25;;;;;;;1.89;100.00;101033.47;7399833;19;20015;-71
2022/12/06 09:19:27;;;;;;;21.98;15.43;;;;;;;1.91;100.00;101031.81;7399416;19;20031;-70
2022/12/06 09:21:55;;;;;;;24.92;15.82;;;;;;;1.90;99.62;101036.94;7402252;19;20079;-70
2022/12/06 09:24:24;;;;;;;22.30;14.88;;;;;;;1.87;100.00;101027.41;7399585;19;20422;-71
2022/12/06 09:26:52;;;;;;;23.83;16.27;;;;;;;1.88;99.75;101031.72;7400965;19;20014;-71
2022/12/06 09:29:21;;;;;;;27.15;18.23;;;;;;;1.90;99.97;101029.19;7398520;19;20048;-72
2022/12/06 09:31:52;;;;;;;30.90;19.85;;;;;;;1.87;99.81;101024.84;7401262;19;20032;-71
2022/12/06 09:34:21;;;;;;;25.38;16.17;;;;;;;1.87;99.54;101027.41;7397407;19;20354;-71
2022/12/06 09:36:54;;;;;;;28.17;17.25;;;;;;;1.88;99.74;101023.09;7400377;19;20039;-71
2022/12/06 09:39:27;;;;;;;27.35;17.55;;;;;;;1.89;99.45;101022.28;7400992;19;20419;-71
2022/12/06 09:42:20;;;;;;;25.95;16.17;;;;;;;1.90;99.08;101024.88;7397478;19;20170;-71
2022/12/06 09:45:20;;;;;;;25.73;17.02;;;;;;;1.91;99.87;101026.63;7397030;19;20489;-71
2022/12/06 09:48:05;;;;;;;26.58;16.83;;;;;;;1.92;99.70;101014.53;7401058;19;20021;-72
2022/12/06 09:50:43;;;;;;;26.10;16.17;;;;;;;1.92;99.47;101017.13;7401357;19;20377;-71
2022/12/06 09:53:44;;;;;;;28.70;18.40;;;;;;;1.94;99.70;101018.91;7399905;19;20134;-71
2022/12/06 09:56:21;;;;;;;28.05;17.55;;;;;;;1.95;99.50;101012.03;7400032;19;20015;-71
2022/12/06 09:59:04;;;;;;;28.15;17.35;;;;;;;1.95;98.47;101004.25;7397573;19;20018;-70
2022/12/06 10:01:47;;;;;;;27.98;17.92;;;;;;;1.98;98.70;101008.63;7402925;19;20487;-74
2022/12/06 10:04:43;;;;;;;25.55;16.52;;;;;;;1.99;99.01;101006.06;7400597;19;20351;-70
2022/12/06 10:07:21;;;;;;;24.45;16.30;;;;;;;1.99;98.57;100998.28;7401361;19;20018;-67
2022/12/06 10:10:03;;;;;;;25.23;16.23;;;;;;;1.96;97.85;100998.25;7399893;19;20022;-70
2022/12/06 10:12:45;;;;;;;28.02;17.25;;;;;;;1.98;98.36;100996.53;7400729;19;20031;-72
2022/12/06 10:15:28;;;;;;;27.13;17.08;;;;;;;1.98;98.57;100993.97;7400068;19;20032;-70
2022/12/06 10:18:11;;;;;;;24.27;16.17;;;;;;;1.99;98.50;100998.28;7398855;19;20031;-71
2022/12/06 10:20:47;;;;;;;23.95;15.20;;;;;;;2.00;99.09;100989.69;7398210;19;20380;-71
2022/12/06 10:23:27;;;;;;;22.58;15.45;;;;;;;2.01;98.17;100985.38;7398401;19;20019;-70
2022/12/06 10:26:07;;;;;;;22.05;15.45;;;;;;;2.00;98.04;100988.81;7396687;19;20022;-73
2022/12/06 10:28:45;;;;;;;24.08;15.25;;;;;;;2.00;98.20;100981.03;7399143;19;20019;-70
2022/12/06 10:31:25;;;;;;;25.50;16.30;;;;;;;2.00;98.16;100981.94;7397128;19;20018;-72
2022/12/06 10:33:57;;;;;;;22.27;14.90;;;;;;;2.00;98.57;100983.63;7396738;19;20042;-71
2022/12/06 10:36:52;;;;;;;20.95;14.73;;;;;;;1.98;96.72;100975.84;7397804;19;20509;-73
2022/12/06 10:39:27;;;;;;;20.90;14.23;;;;;;;2.00;97.40;100979.34;7398810;19;20074;-72
2022/12/06 10:42:02;;;;;;;22.98;15.70;;;;;;;2.02;97.88;100975.06;7398115;19;20074;-70
2022/12/06 10:44:39;;;;;;;24.67;16.58;;;;;;;2.04;97.80;100972.50;7395845;19;20074;-72
2022/12/06 10:47:11;;;;;;;23.88;15.60;;;;;;;2.06;98.15;100976.84;7396272;19;20022;-72
2022/12/06 10:49:49;;;;;;;19.80;14.30;;;;;;;2.07;98.14;100970.84;7397948;19;20014;-70
2022/12/06 10:52:44;;;;;;;21.20;13.48;;;;;;;2.08;97.14;100975.16;7397408;19;20014;-70
2022/12/06 10:55:18;;;;;;;;;;;;;;;2.09;96.55;100973.44;7397913;19;20477;-69
2022/12/06 10:57:51;;;;;;;27.33;15.02;;;;;;;2.09;97.95;100963.97;7397795;19;19982;-71
2022/12/06 11:00:22;;;;;;;24.98;15.77;;;;;;;2.10;98.43;100965.69;7399474;19;20045;-69
2022/12/06 11:02:59;;;;;;;31.02;18.42;;;;;;;2.10;98.24;100965.69;7399256;19;20048;-69
2022/12/06 11:05:31;;;;;;;21.00;14.20;;;;;;;2.15;98.03;100959.72;7396079;19;20513;-69
2022/12/06 11:08:07;;;;;;;23.63;15.43;;;;;;;2.16;98.27;100956.28;7399921;19;20143;-68
2022/12/06 11:10:37;;;;;;;18.42;13.75;;;;;;;2.16;97.69;100951.13;7396936;19;20477;-72
2022/12/06 11:13:18;;;;;;;19.15;13.15;;;;;;;2.16;96.26;100951.13;7398248;19;20015;-73
2022/12/06 11:15:59;;;;;;;16.27;12.52;;;;;;;2.14;96.26;100945.91;7398660;19;20343;-70
2022/12/06 11:18:30;;;;;;;27.42;15.02;;;;;;;2.17;97.19;100942.50;7396826;19;20019;-71
2022/12/06 11:21:03;;;;;;;17.90;12.40;;;;;;;2.17;95.68;100952.88;7393002;19;20031;-70
2022/12/06 11:23:44;;;;;;;16.57;13.00;;;;;;;2.18;96.38;100949.44;7396547;19;20022;-71
2022/12/06 11:26:22;;;;;;;17.00;12.13;;;;;;;2.17;96.83;100937.34;7397996;19;20512;-71
2022/12/06 11:29:04;;;;;;;18.52;13.27;;;;;;;2.21;97.92;100946.88;7397522;19;20392;-70
2022/12/06 11:31:35;;;;;;;16.83;12.68;;;;;;;2.23;96.65;100950.38;7396000;19;20021;-71
2022/12/06 11:34:06;;;;;;;15.88;11.88;;;;;;;2.26;97.36;100947.81;7394614;19;20078;-71
2022/12/06 11:36:35;;;;;;;16.67;12.05;;;;;;;2.29;97.23;100947.88;7395967;19;20363;-73
2022/12/06 11:39:07;;;;;;;16.58;12.82;;;;;;;2.31;97.42;100937.53;7395907;19;20081;-71
2022/12/06 11:41:38;;;;;;;18.05;13.10;;;;;;;2.34;97.75;100943.66;7398075;19;20512;-70
2022/12/06 11:44:08;;;;;;;15.85;11.00;;;;;;;2.34;96.98;100940.16;7394605;19;20031;-71
2022/12/06 11:46:36;;;;;;;17.52;11.90;;;;;;;2.34;97.14;100941.06;7395431;19;20041;-73
2022/12/06 11:49:17;;;;;;;15.98;11.70;;;;;;;2.34;96.51;100930.69;7397436;19;20427;-70
2022/12/06 11:51:46;;;;;;;16.10;11.27;;;;;;;2.36;97.10;100933.31;7398411;19;20027;-70
2022/12/06 11:54:25;;;;;;;15.52;11.18;;;;;;;2.34;97.00;100930.69;7396461;19;20007;-70
2022/12/06 11:56:55;;;;;;;17.90;11.93;;;;;;;2.35;96.28;100924.69;7395657;19;20450;-70
2022/12/06 11:59:30;;;;;;;15.15;11.02;;;;;;;2.33;96.04;100922.91;7394752;19;20022;-71